Time;durP1;ratioP1;P1;durP2;ratioP2;P2;SDS_P1;SDS_P2;PMS_P1;PMS_P2;Temp;Humidity;BMP_temperature;BMP_pressure;BME280_temperature;BME280_humidity;BME280_pressure;Samples;Min_cycle;Max_cycle;Signal;HPM_P1;HPM_P2
2022/04/22 00:00:38;;;;;;;12.00;5.70;;;;;;;-146.64;87.76;38969.41;4998450;28;20033;-80
2022/04/22 00:03:07;;;;;;;9.77;5.68;;;;;;;-146.64;87.97;38985.78;4981480;28;20036;-80
2022/04/22 00:05:33;;;;;;;11.93;6.05;;;;;;;-146.64;88.76;38977.59;4998727;28;20489;-79
2022/04/22 00:07:59;;;;;;;7.25;5.20;;;;;;;-146.64;88.90;38973.50;4981960;28;20032;-80
2022/04/22 00:10:25;;;;;;;10.50;5.47;;;;;;;-146.64;89.20;39002.16;4998214;28;20413;-79
2022/04/22 00:12:50;;;;;;;13.30;5.50;;;;;;;-146.64;89.64;38985.78;4996694;28;20060;-79
2022/04/22 00:15:18;;;;;;;10.97;5.90;;;;;;;-146.64;89.97;38940.75;4997237;28;20030;-80
2022/04/22 00:17:43;;;;;;;10.05;5.93;;;;;;;-146.64;90.11;38965.31;5014198;28;20457;-79
2022/04/22 00:20:11;;;;;;;10.67;6.10;;;;;;;-146.64;90.72;38993.97;4998538;28;20045;-79
2022/04/22 00:22:39;;;;;;;9.30;5.78;;;;;;;-146.64;91.45;39030.81;4981683;28;20501;-79
2022/04/22 00:25:06;;;;;;;11.15;6.15;;;;;;;-146.64;91.70;39018.53;4981729;28;20112;-80
2022/04/22 00:27:31;;;;;;;9.23;6.47;;;;;;;-146.64;92.21;39079.91;4981706;28;20088;-79
2022/04/22 00:29:57;;;;;;;11.03;6.57;;;;;;;-146.64;92.41;38977.59;5001452;28;20095;-79
2022/04/22 00:32:22;;;;;;;14.43;6.77;;;;;;;-146.64;92.00;39039.00;4984592;28;20362;-80
2022/04/22 00:34:48;;;;;;;12.80;7.23;;;;;;;-146.64;92.94;39045.13;5000301;28;20034;-78
2022/04/22 00:37:15;;;;;;;9.03;7.20;;;;;;;-146.64;93.60;39034.91;4999933;28;20119;-79
2022/04/22 00:39:40;;;;;;;;;;;;;;;-146.64;93.94;39069.69;5000899;28;20037;-79
2022/04/22 00:42:07;;;;;;;9.20;6.60;;;;;;;-146.64;94.24;38961.22;5000536;28;19921;-79
2022/04/22 00:44:33;;;;;;;10.13;6.93;;;;;;;-146.64;94.57;39061.50;5018157;28;20034;-80
2022/04/22 00:46:58;;;;;;;16.63;7.70;;;;;;;-146.64;94.13;39045.13;4984338;28;20030;-79
2022/04/22 00:49:24;;;;;;;11.63;7.17;;;;;;;-146.64;93.98;39071.75;4983239;28;20048;-79
2022/04/22 00:51:49;;;;;;;11.30;7.17;;;;;;;-146.64;94.52;39022.63;5000902;28;20054;-79
2022/04/22 00:54:15;;;;;;;12.48;6.53;;;;;;;-146.64;94.00;39051.28;5000259;28;20072;-79
2022/04/22 00:56:40;;;;;;;13.30;6.85;;;;;;;-146.64;95.57;39088.09;4999631;28;20088;-80
2022/04/22 00:59:06;;;;;;;16.00;7.03;;;;;;;-146.64;96.13;39088.09;5017585;28;20076;-78
2022/04/22 01:01:33;;;;;;;12.80;7.40;;;;;;;-146.64;97.31;39092.19;5017045;28;20041;-79
2022/04/22 01:12:12;;;;;;;14.73;7.90;;;;;;;-146.64;100.00;39133.13;5016958;28;20452;-79
2022/04/22 01:14:37;;;;;;;14.50;7.50;;;;;;;-146.64;100.00;39139.28;5000045;28;20034;-80
2022/04/22 01:17:04;;;;;;;13.55;7.07;;;;;;;-146.64;100.00;39077.88;4999936;28;20041;-79
2022/04/22 01:19:30;;;;;;;13.00;7.60;;;;;;;-146.64;100.00;39145.41;5016522;28;20044;-79
2022/04/22 01:21:55;;;;;;;17.80;7.47;;;;;;;-146.64;100.00;39151.56;4999532;28;20362;-79
2022/04/22 01:24:23;;;;;;;13.63;7.72;;;;;;;-146.64;100.00;39198.63;4999994;28;20115;-79
2022/04/22 01:26:50;;;;;;;16.65;7.90;;;;;;;-146.64;100.00;39186.34;4999942;28;20604;-79
2022/04/22 01:29:18;;;;;;;11.50;8.07;;;;;;;-146.64;100.00;39235.47;4999522;28;20029;-79
2022/04/22 01:31:44;;;;;;;14.30;8.10;;;;;;;-146.64;100.00;39202.72;4983342;28;20115;-79
2022/04/22 01:34:11;;;;;;;12.77;7.20;;;;;;;-146.64;100.00;39217.03;5016671;28;20069;-78
2022/04/22 01:36:37;;;;;;;10.07;8.30;;;;;;;-146.64;100.00;39223.19;4998892;28;20041;-79
2022/04/22 01:39:03;;;;;;;11.63;7.68;;;;;;;-146.64;100.00;39276.38;4998634;28;20046;-78
2022/04/22 01:41:29;;;;;;;11.20;8.23;;;;;;;-146.64;100.00;39235.47;5015865;28;20030;-78
2022/04/22 01:43:55;;;;;;;17.50;8.85;;;;;;;-146.64;100.00;39247.75;5017065;28;20034;-80
2022/04/22 01:46:20;;;;;;;14.70;8.87;;;;;;;-146.64;100.00;39264.09;5017359;28;20037;-79
2022/04/22 01:48:50;;;;;;;19.00;7.72;;;;;;;-146.64;100.00;39309.13;5015194;28;20026;-79
2022/04/22 01:51:16;;;;;;;11.90;7.55;;;;;;;-146.64;100.00;39296.84;5016013;28;20177;-80
2022/04/22 01:53:41;;;;;;;19.87;7.73;;;;;;;-146.64;100.00;39313.22;5015834;28;20532;-79
2022/04/22 01:56:07;;;;;;;13.53;8.53;;;;;;;-146.64;100.00;39362.34;4998118;28;20045;-80
2022/04/22 01:58:33;;;;;;;14.50;7.85;;;;;;;-146.64;100.00;39395.09;4998689;28;20038;-80
2022/04/22 02:00:58;;;;;;;10.95;7.95;;;;;;;-146.64;100.00;39393.03;5014610;28;20079;-79
2022/04/22 02:03:24;;;;;;;11.40;8.30;;;;;;;-146.64;100.00;39411.47;4998737;28;20161;-79
2022/04/22 02:05:49;;;;;;;17.90;7.97;;;;;;;-146.64;100.00;39419.66;5014315;28;20045;-79
2022/04/22 02:08:15;;;;;;;11.55;7.40;;;;;;;-146.64;100.00;39403.28;5015889;28;20037;-80
2022/04/22 02:10:43;;;;;;;14.55;9.00;;;;;;;-146.64;100.00;39397.13;5015555;28;20030;-79
2022/04/22 02:13:08;;;;;;;11.65;8.57;;;;;;;-146.64;100.00;39460.59;4997827;28;20124;-79
2022/04/22 02:15:35;;;;;;;10.32;8.40;;;;;;;-146.64;100.00;39476.97;4982360;28;20030;-79
2022/04/22 02:18:00;;;;;;;13.93;8.35;;;;;;;-146.64;100.00;39468.78;4998057;28;20037;-79
2022/04/22 02:20:26;;;;;;;12.60;8.67;;;;;;;-146.64;100.00;39489.25;4997820;28;20048;-79
2022/04/22 02:22:52;;;;;;;14.40;9.33;;;;;;;-146.64;100.00;39538.34;5015454;28;20033;-77
2022/04/22 02:25:17;;;;;;;15.90;8.80;;;;;;;-146.64;100.00;39554.72;4981171;28;20092;-78
2022/04/22 02:30:28;;;;;;;15.98;8.98;;;;;;;-146.64;100.00;39677.53;5000927;28;20053;-79
2022/04/22 02:32:53;;;;;;;14.20;8.63;;;;;;;-146.64;100.00;39636.59;4997390;28;20025;-79
2022/04/22 02:35:21;;;;;;;11.27;8.02;;;;;;;-146.64;100.00;39702.09;5014926;28;20119;-80
2022/04/22 02:37:49;;;;;;;15.98;8.45;;;;;;;-146.64;100.00;39753.28;4997919;28;20049;-79
2022/04/22 02:45:26;;;;;;;13.43;9.05;;;;;;;-146.64;100.00;39831.06;5015469;28;20030;-79
2022/04/22 02:45:48;;;;;;;15.70;8.40;;;;;;;-146.64;100.00;39794.22;4999737;28;20045;-80
2022/04/22 02:48:16;;;;;;;16.60;9.10;;;;;;;-146.64;100.00;40017.31;5015089;28;20049;-80
2022/04/22 02:50:41;;;;;;;14.60;8.68;;;;;;;-146.64;100.00;40201.56;4996385;28;20107;-80
2022/04/22 02:53:07;;;;;;;12.10;8.55;;;;;;;-146.64;100.00;40091.00;4997151;28;20030;-79
2022/04/22 02:55:36;;;;;;;12.38;8.25;;;;;;;-146.64;100.00;40209.75;4997740;28;20042;-79
2022/04/22 02:58:02;;;;;;;13.45;9.57;;;;;;;-146.64;100.00;40134.00;5013522;28;20041;-79
2022/04/22 03:00:27;;;;;;;16.70;8.75;;;;;;;-146.64;100.00;40275.25;4980884;28;20038;-79
2022/04/22 03:02:53;;;;;;;12.52;7.82;;;;;;;-146.64;100.00;40463.59;4997001;28;20397;-79
2022/04/22 03:05:18;;;;;;;12.10;8.40;;;;;;;-146.64;100.00;40631.47;4997293;28;20514;-79
2022/04/22 03:07:44;;;;;;;13.63;9.10;;;;;;;-146.64;100.00;40430.81;4996940;28;20026;-79
2022/04/22 03:10:10;;;;;;;13.53;8.13;;;;;;;-146.64;100.00;40791.16;5014866;28;20099;-79
2022/04/22 03:12:35;;;;;;;15.20;8.23;;;;;;;-146.64;100.00;40848.47;5015035;28;20243;-79
2022/04/22 03:15:01;;;;;;;15.43;8.23;;;;;;;-146.64;100.00;40821.84;4996220;28;20042;-79
2022/04/22 03:17:27;;;;;;;14.13;7.67;;;;;;;-146.64;100.00;41333.75;4997061;28;20037;-79
2022/04/22 03:19:53;;;;;;;11.33;8.50;;;;;;;-146.64;100.00;41536.47;4996801;28;20038;-80
2022/04/22 03:22:18;;;;;;;13.05;8.93;;;;;;;-146.64;100.00;41462.75;4997061;28;20378;-81
2022/04/22 03:24:43;;;;;;;12.25;8.40;;;;;;;-146.64;100.00;41323.50;4980693;28;20034;-80
2022/04/22 03:27:09;;;;;;;13.70;8.43;;;;;;;-146.64;100.00;41661.38;4996187;28;20067;-80
2022/04/22 03:29:35;;;;;;;10.90;8.60;;;;;;;-146.64;100.00;41937.84;4997372;28;20026;-80
2022/04/22 03:32:02;;;;;;;17.52;9.15;;;;;;;-146.64;100.00;41987.00;4980178;28;20141;-80
2022/04/22 03:34:28;;;;;;;15.32;8.63;;;;;;;-146.64;100.00;42335.16;4997137;28;20036;-80
2022/04/22 03:36:55;;;;;;;13.98;8.90;;;;;;;-146.64;100.00;43191.41;4996771;28;20489;-80
2022/04/22 03:39:20;;;;;;;;;;;;;;;-146.64;100.00;43316.38;5014897;28;20026;-80
2022/04/22 03:41:45;;;;;;;18.45;8.68;;;;;;;-146.64;100.00;44002.72;5013098;28;20382;-80
2022/04/22 03:44:11;;;;;;;14.55;8.80;;;;;;;-146.64;100.00;43410.59;5012930;28;20034;-80
2022/04/22 03:46:36;;;;;;;10.63;7.70;;;;;;;-146.64;100.00;44170.75;5014000;28;20030;-80
2022/04/22 03:49:04;;;;;;;17.25;9.00;;;;;;;-146.64;100.00;45343.03;5013198;28;20121;-80
2022/04/22 03:51:29;;;;;;;9.70;7.97;;;;;;;-146.64;100.00;44920.81;5014529;28;20254;-81
2022/04/22 03:53:55;;;;;;;18.77;9.48;;;;;;;-146.64;100.00;45668.94;4980477;28;20090;-80
2022/04/22 03:59:05;;;;;;;13.65;8.00;;;;;;;-146.64;100.00;47098.00;5013572;28;20052;-80
2022/04/22 04:01:31;;;;;;;13.18;8.20;;;;;;;-146.64;100.00;48902.97;4996659;28;20042;-79
2022/04/22 04:03:57;;;;;;;12.68;8.63;;;;;;;-146.64;100.00;51924.06;5012582;28;20041;-80
2022/04/22 04:06:23;;;;;;;16.10;8.63;;;;;;;-146.64;100.00;55041.97;5013090;28;20149;-79
2022/04/22 04:15:57;;;;;;;15.43;8.20;;;;;;;-146.64;100.00;57409.78;4995356;28;20227;-80
2022/04/22 04:17:10;;;;;;;14.40;8.48;;;;;;;-146.64;100.00;67950.44;4985786;28;20111;-80
2022/04/22 04:25:04;;;;;;;14.27;8.40;;;;;;;-146.64;100.00;76931.94;5012746;28;20064;-80
2022/04/22 04:27:30;;;;;;;10.35;7.18;;;;;;;-146.64;100.00;79577.41;4996490;28;20411;-80
2022/04/22 04:29:55;;;;;;;12.47;8.10;;;;;;;-146.64;100.00;82754.28;5012454;28;20054;-80
2022/04/22 04:32:21;;;;;;;14.73;7.60;;;;;;;-146.64;100.00;84608.59;5013295;28;20440;-80
2022/04/22 04:34:47;;;;;;;14.95;8.02;;;;;;;-146.64;100.00;86728.88;5013715;28;20067;-80
2022/04/22 04:37:13;;;;;;;15.88;8.45;;;;;;;-146.64;100.00;88319.81;4979698;28;20022;-79
2022/04/22 04:39:40;;;;;;;14.00;8.50;;;;;;;-146.64;100.00;89911.41;5011613;28;20037;-80
2022/04/22 04:42:07;;;;;;;15.45;8.75;;;;;;;-146.64;100.00;92034.47;4995873;28;20053;-80
2022/04/22 04:44:33;;;;;;;16.13;8.27;;;;;;;-146.64;100.00;92034.47;5013388;28;20092;-79
2022/04/22 04:46:58;;;;;;;15.67;8.67;;;;;;;-146.64;100.00;93627.50;5012323;28;20374;-79
2022/04/22 04:49:27;;;;;;;15.15;9.15;;;;;;;-146.64;100.00;94689.88;4981693;28;20033;-79
2022/04/22 04:51:53;;;;;;;15.05;8.93;;;;;;;-146.64;100.00;95221.19;5014028;28;20057;-79
2022/04/22 04:54:19;;;;;;;15.02;9.88;;;;;;;-146.64;100.00;95752.53;5014163;28;20068;-80
2022/04/22 04:56:44;;;;;;;19.23;9.10;;;;;;;-146.64;100.00;96815.47;4980099;28;20061;-79
2022/04/22 04:59:10;;;;;;;19.63;9.45;;;;;;;-146.64;100.00;96018.25;5014223;28;20017;-80
2022/04/22 05:01:35;;;;;;;19.88;9.90;;;;;;;-146.64;100.00;96549.72;5012239;28;20049;-80
2022/04/22 05:04:01;;;;;;;16.13;10.10;;;;;;;-146.64;100.00;96549.72;4996102;28;20509;-80
2022/04/22 05:06:26;;;;;;;16.38;10.15;;;;;;;-146.64;100.00;96283.97;5013767;28;20029;-80
2022/04/22 05:08:51;;;;;;;16.13;9.23;;;;;;;-146.64;100.00;96815.47;4979618;28;20026;-80
2022/04/22 05:11:17;;;;;;;18.02;9.60;;;;;;;-146.64;100.00;97081.25;4979814;28;20605;-80
2022/04/22 05:13:42;;;;;;;15.97;9.30;;;;;;;-146.64;100.00;97878.69;5013419;28;20412;-80
2022/04/22 05:16:08;;;;;;;13.65;9.98;;;;;;;-146.64;100.00;97878.69;4999246;28;20045;-80
2022/04/22 05:18:33;;;;;;;20.23;11.00;;;;;;;-146.64;100.00;97081.25;5016516;28;20030;-80
2022/04/22 05:20:59;;;;;;;16.15;10.18;;;;;;;-146.64;100.00;96018.25;4999644;28;20030;-79
2022/04/22 05:23:24;;;;;;;19.88;10.88;;;;;;;-146.64;100.00;95486.84;5017835;28;20041;-81
2022/04/22 05:25:49;;;;;;;14.77;10.75;;;;;;;-146.64;100.00;94955.53;4999544;28;20488;-80
2022/04/22 05:28:15;;;;;;;14.98;10.70;;;;;;;-146.64;100.00;93096.44;5017827;28;20041;-80
2022/04/22 05:33:25;;;;;;;17.27;10.32;;;;;;;-146.64;100.00;90442.06;5017672;28;20604;-80
2022/04/22 05:35:50;;;;;;;15.48;10.52;;;;;;;-146.64;100.00;88585.03;4999469;28;20038;-81
2022/04/22 05:38:17;;;;;;;21.17;11.53;;;;;;;-146.64;100.00;89380.81;4999755;28;20080;-80
2022/04/22 05:40:46;;;;;;;17.98;10.20;;;;;;;-146.64;100.00;87524.28;4999671;28;20099;-80
2022/04/22 05:43:11;;;;;;;18.88;10.82;;;;;;;-146.64;100.00;86198.72;4999359;28;20237;-80
2022/04/22 05:45:39;;;;;;;16.65;10.55;;;;;;;-146.64;100.00;85138.56;4983458;28;20444;-80
2022/04/22 05:48:06;;;;;;;19.88;11.02;;;;;;;-146.64;100.00;83548.88;4999374;28;20129;-81
2022/04/22 05:50:32;;;;;;;19.38;12.10;;;;;;;-146.64;100.00;83284.00;4999968;28;20033;-79
2022/04/22 05:52:57;;;;;;;24.02;11.75;;;;;;;-146.64;100.00;80106.72;4999399;28;20026;-79
2022/04/22 05:55:24;;;;;;;22.67;11.70;;;;;;;-146.64;100.00;78783.59;4983306;28;20090;-80
2022/04/22 05:57:52;;;;;;;15.43;11.13;;;;;;;-146.64;100.00;75874.25;4999593;28;20489;-79
2022/04/22 06:00:19;;;;;;;18.70;12.25;;;;;;;-146.64;100.00;73759.69;5000132;28;20065;-80
2022/04/22 06:02:45;;;;;;;16.17;11.45;;;;;;;-146.64;100.00;70061.91;4999694;28;20037;-81
2022/04/22 06:05:13;;;;;;;24.52;12.30;;;;;;;-146.64;100.00;70061.91;5000024;28;20137;-80
2022/04/22 06:07:42;;;;;;;20.80;12.23;;;;;;;-146.64;100.00;69533.94;5018632;28;20042;-80
2022/04/22 06:13:00;;;;;;;18.33;11.95;;;;;;;-146.64;100.00;64785.31;5018413;28;20133;-81
2022/04/22 06:15:26;;;;;;;17.95;11.25;;;;;;;-146.64;100.00;63467.22;5016641;28;20038;-80
2022/04/22 06:17:52;;;;;;;17.23;12.20;;;;;;;-146.64;100.00;59515.66;4984552;28;20041;-79
2022/04/22 06:20:17;;;;;;;18.42;12.55;;;;;;;-146.64;100.00;56883.47;4999450;28;20126;-80
2022/04/22 06:22:44;;;;;;;17.63;13.00;;;;;;;-146.64;100.00;57672.94;5016042;28;20057;-81
2022/04/22 06:25:10;;;;;;;20.08;11.75;;;;;;;-146.64;100.00;54515.97;4999063;28;20397;-80
2022/04/22 06:27:40;;;;;;;19.77;12.30;;;;;;;-146.64;100.00;51817.28;4983212;28;20045;-80
2022/04/22 06:30:08;;;;;;;17.70;11.77;;;;;;;-146.64;100.00;49617.00;4999378;28;20527;-79
2022/04/22 06:32:37;;;;;;;13.57;11.07;;;;;;;-146.64;100.00;45744.78;4983859;28;20025;-80
2022/04/22 06:35:04;;;;;;;12.90;10.55;;;;;;;-146.64;100.00;41692.09;4984866;28;20030;-80
2022/04/22 06:37:34;;;;;;;;;;;;;;;-146.64;100.00;42077.09;5000329;28;20036;-80
2022/04/22 06:45:46;;;;;;;16.15;11.90;;;;;;;-146.64;100.00;38165.25;5015977;28;20172;-80
2022/04/22 06:48:19;;;;;;;16.10;10.50;;;;;;;-146.64;100.00;38328.94;4999476;28;20034;-79
2022/04/22 06:50:50;;;;;;;19.50;11.60;;;;;;;-146.64;100.00;38322.81;4998618;28;20036;-80
2022/04/22 06:53:16;;;;;;;19.15;10.02;;;;;;;-146.64;100.00;38392.38;4999102;28;20030;-80
2022/04/22 06:55:42;;;;;;;13.25;10.27;;;;;;;-146.64;100.00;38476.25;4999153;28;20042;-80
2022/04/22 06:58:10;;;;;;;14.00;9.20;;;;;;;-146.64;100.00;38441.47;4998811;28;20037;-78
2022/04/22 07:00:35;;;;;;;13.00;10.32;;;;;;;-146.64;100.00;38527.41;4998523;28;20045;-79
2022/04/22 07:03:01;;;;;;;12.50;9.93;;;;;;;-146.64;100.00;38443.53;4983975;28;20076;-80
2022/04/22 07:05:27;;;;;;;14.80;9.87;;;;;;;-146.64;100.00;38527.41;5015800;28;20037;-80
2022/04/22 07:07:54;;;;;;;11.40;9.90;;;;;;;-146.64;100.00;38453.75;5015357;28;20100;-80
2022/04/22 07:10:20;;;;;;;13.48;10.07;;;;;;;-146.64;100.00;38470.13;4999223;28;20033;-81
2022/04/22 07:12:45;;;;;;;12.27;10.33;;;;;;;-146.64;100.00;38439.44;4999504;28;20058;-80
2022/04/22 07:15:12;;;;;;;13.80;11.03;;;;;;;-146.64;100.00;38490.59;4982578;28;20026;-80
2022/04/22 07:17:40;;;;;;;16.33;10.32;;;;;;;-146.64;100.00;38404.66;5015002;28;20022;-81
2022/04/22 07:20:11;;;;;;;18.27;11.10;;;;;;;-146.64;100.00;38461.94;4998237;28;20038;-80
2022/04/22 07:22:40;;;;;;;14.60;11.50;;;;;;;-146.64;100.00;38281.88;4998982;28;20084;-81
2022/04/22 07:25:07;;;;;;;13.43;10.88;;;;;;;-146.64;100.00;38404.66;4999253;28;20033;-80
2022/04/22 07:27:34;;;;;;;14.77;10.75;;;;;;;-146.64;100.00;38517.19;4996370;28;20100;-80
2022/04/22 07:30:03;;;;;;;17.40;10.88;;;;;;;-146.64;100.00;38437.38;4998059;28;20050;-79
2022/04/22 07:32:29;;;;;;;14.85;10.23;;;;;;;-146.64;100.00;38459.88;5014858;28;20057;-80
2022/04/22 07:34:56;;;;;;;12.33;10.80;;;;;;;-146.64;100.00;38429.19;4998317;28;20034;-80
2022/04/22 07:37:21;;;;;;;;;;;;;;;-146.64;100.00;38502.84;5014770;28;20061;-80
2022/04/22 07:39:48;;;;;;;13.55;11.30;;;;;;;-146.64;100.00;38502.84;5014465;28;19914;-79
2022/04/22 07:42:17;;;;;;;14.38;11.00;;;;;;;-146.64;100.00;38519.22;4981709;28;20030;-80
2022/04/22 07:47:30;;;;;;;17.43;11.47;;;;;;;-146.64;100.00;38486.50;5001243;28;20113;-80
2022/04/22 07:49:55;;;;;;;15.83;12.53;;;;;;;-146.64;100.00;38556.06;4998014;28;20057;-80
2022/04/22 07:52:21;;;;;;;14.83;11.30;;;;;;;-146.64;100.00;38322.81;4998009;28;20037;-80
2022/04/22 07:54:46;;;;;;;16.17;11.67;;;;;;;-146.64;100.00;38541.75;4998305;28;20032;-80
2022/04/22 07:57:11;;;;;;;19.13;11.60;;;;;;;-146.64;100.00;38537.66;4998309;28;20121;-79
2022/04/22 07:59:37;;;;;;;17.93;12.23;;;;;;;-146.64;100.00;38543.78;4982103;28;20021;-81
2022/04/22 08:02:03;;;;;;;20.97;12.57;;;;;;;-146.64;100.00;38566.28;4998241;28;20034;-81
2022/04/22 08:04:29;;;;;;;15.63;11.75;;;;;;;-146.64;100.00;38511.03;4999067;28;20042;-80
2022/04/22 08:06:55;;;;;;;16.80;11.85;;;;;;;-146.64;100.00;38478.31;5014873;28;20037;-80
2022/04/22 08:09:22;;;;;;;20.63;12.43;;;;;;;-146.64;100.00;38531.50;4982756;28;20033;-80
2022/04/22 08:11:48;;;;;;;15.60;11.30;;;;;;;-146.64;100.00;38547.88;5015054;28;20104;-80
2022/04/22 08:14:13;;;;;;;17.47;11.17;;;;;;;-146.64;100.00;38517.19;5014416;28;20073;-80
2022/04/22 08:16:39;;;;;;;21.80;11.60;;;;;;;-146.64;100.00;38511.03;4998121;28;20037;-80
2022/04/22 08:19:04;;;;;;;15.57;12.17;;;;;;;-146.64;100.00;38502.84;4998982;28;20040;-80
2022/04/22 08:21:33;;;;;;;14.00;11.03;;;;;;;-146.64;100.00;38502.84;5014967;28;20049;-80
2022/04/22 08:24:02;;;;;;;13.50;11.35;;;;;;;-146.64;100.00;38539.69;4999180;28;20352;-81
2022/04/22 08:26:31;;;;;;;15.60;11.50;;;;;;;-146.64;100.00;38558.09;5014574;28;20030;-80
2022/04/22 08:28:56;;;;;;;13.80;11.38;;;;;;;-146.64;100.00;38533.56;4998809;28;20385;-81
2022/04/22 08:31:21;;;;;;;16.67;12.03;;;;;;;-146.64;100.00;38570.38;5014765;28;20124;-80
2022/04/22 08:33:48;;;;;;;15.47;11.43;;;;;;;-146.64;100.00;38494.69;4998355;28;20026;-81
2022/04/22 08:36:14;;;;;;;;;;;;;;;-146.64;100.00;38466.03;4998101;28;20489;-80
2022/04/22 08:38:42;;;;;;;16.20;10.80;;;;;;;-146.64;100.00;38517.19;5013955;28;19928;-81
2022/04/22 08:41:12;;;;;;;14.30;10.55;;;;;;;-146.64;100.00;38560.16;5015573;28;20056;-81
2022/04/22 08:43:38;;;;;;;14.25;11.02;;;;;;;-146.64;100.00;38486.50;4997743;28;20068;-80
2022/04/22 08:46:03;;;;;;;19.50;11.30;;;;;;;-146.64;100.00;38470.13;4997688;28;20497;-80
2022/04/22 08:51:14;;;;;;;18.92;10.50;;;;;;;-146.64;100.00;38363.72;5003944;28;20095;-80
2022/04/22 08:53:43;;;;;;;11.03;9.27;;;;;;;-146.64;100.00;38326.88;5002254;28;20045;-80
2022/04/22 08:56:10;;;;;;;13.25;10.75;;;;;;;-146.64;100.00;38326.88;5000901;28;20373;-81
2022/04/22 08:58:36;;;;;;;19.70;8.60;;;;;;;-146.64;100.00;38396.47;5018683;28;20037;-81
2022/04/22 09:01:01;;;;;;;11.67;8.73;;;;;;;-146.64;100.00;38502.84;5001853;28;20033;-80
2022/04/22 09:03:27;;;;;;;13.33;8.73;;;;;;;-146.64;100.00;38554.00;5001359;28;20058;-80
2022/04/22 09:05:57;;;;;;;14.30;9.90;;;;;;;-146.64;100.00;38427.16;4987234;28;20087;-81
2022/04/22 09:08:24;;;;;;;14.68;9.98;;;;;;;-146.64;100.00;38453.75;5010585;28;20054;-81
2022/04/22 09:10:57;;;;;;;12.07;9.30;;;;;;;-146.64;100.00;38478.31;5018300;28;20025;-81
2022/04/22 09:13:26;;;;;;;12.30;8.48;;;;;;;-146.64;100.00;38412.81;5015331;28;20034;-81
2022/04/22 09:15:52;;;;;;;12.27;9.23;;;;;;;-146.64;100.00;38441.47;5017963;28;20110;-81
2022/04/22 09:18:17;;;;;;;12.60;9.87;;;;;;;-146.64;100.00;38404.66;5000248;28;20113;-80
2022/04/22 09:20:45;;;;;;;14.87;9.83;;;;;;;-146.64;100.00;38388.28;4996519;28;20033;-79
2022/04/22 09:23:28;;;;;;;11.25;9.40;;;;;;;-146.64;100.00;38382.13;5003766;28;20104;-81
2022/04/22 09:25:53;;;;;;;15.10;10.00;;;;;;;-146.64;100.00;38175.47;4997777;28;20485;-79
2022/04/22 09:28:18;;;;;;;16.37;9.63;;;;;;;-146.64;95.71;38275.75;4999749;28;20030;-81
2022/04/22 09:31:01;;;;;;;14.77;8.67;;;;;;;-146.64;97.67;38351.44;5004647;28;20118;-82
2022/04/22 09:33:47;;;;;;;12.40;9.15;;;;;;;-146.64;96.58;38363.72;5008157;28;20045;-79
2022/04/22 09:45:08;;;;;;;13.05;8.77;;;;;;;-146.64;90.56;38214.34;5004291;28;20524;-80
2022/04/22 09:47:35;;;;;;;11.32;8.55;;;;;;;-146.64;89.56;38157.06;5005407;28;20041;-81
2022/04/22 09:50:05;;;;;;;13.13;8.43;;;;;;;-146.64;89.89;38249.13;5001687;28;20041;-80
2022/04/22 09:52:34;;;;;;;15.00;8.20;;;;;;;-146.64;88.45;38245.06;4995692;28;20022;-78
2022/04/22 09:55:06;;;;;;;12.63;8.85;;;;;;;-146.64;86.86;38142.75;5003294;28;20038;-82
2022/04/22 09:57:57;;;;;;;14.55;7.47;;;;;;;-146.64;85.21;38073.19;5002798;28;20040;-80
2022/04/22 10:00:24;;;;;;;16.25;7.55;;;;;;;-146.64;80.41;38052.72;5019928;28;20037;-81
2022/04/22 10:02:50;;;;;;;9.60;7.57;;;;;;;-146.64;79.63;38011.81;5014644;28;20092;-79
2022/04/22 10:05:18;;;;;;;9.40;6.18;;;;;;;-146.64;77.57;37970.88;5010561;28;20056;-80
2022/04/22 10:07:44;;;;;;;10.95;6.35;;;;;;;-146.64;76.38;37913.59;5017796;28;20029;-80
2022/04/22 10:10:11;;;;;;;13.30;7.00;;;;;;;-146.64;76.74;37929.97;5023563;28;20034;-80
2022/04/22 10:12:37;;;;;;;11.68;6.85;;;;;;;-146.64;74.93;37917.69;5000479;28;20037;-78
2022/04/22 10:15:04;;;;;;;10.85;6.55;;;;;;;-146.64;75.69;37811.31;5015538;28;20077;-78
2022/04/22 10:17:29;;;;;;;7.53;5.40;;;;;;;-146.64;70.39;37856.31;5017966;28;20033;-81
2022/04/22 10:19:58;;;;;;;8.52;6.18;;;;;;;-146.64;69.32;37972.94;5002136;28;20036;-80
2022/04/22 10:22:25;;;;;;;10.75;5.38;;;;;;;-146.64;67.79;37780.63;5005907;28;20034;-80
2022/04/22 10:24:51;;;;;;;8.65;5.13;;;;;;;-146.64;66.92;37827.69;4984173;28;20479;-80
2022/04/22 10:27:17;;;;;;;10.60;6.60;;;;;;;-146.64;65.60;38093.66;5008864;28;20078;-79
2022/04/22 10:29:42;;;;;;;10.07;5.80;;;;;;;-146.64;66.53;38044.53;5016026;28;20370;-80
2022/04/22 10:32:09;;;;;;;10.03;6.03;;;;;;;-146.64;63.55;37999.53;5005148;28;20034;-81
2022/04/22 10:34:40;;;;;;;9.43;5.55;;;;;;;-146.64;65.60;38200.03;5010147;28;20036;-79
2022/04/22 10:37:16;;;;;;;8.65;5.78;;;;;;;-146.64;66.88;38003.63;5005608;28;20026;-80
2022/04/22 10:39:41;;;;;;;11.38;5.97;;;;;;;-146.64;66.83;38048.63;5014864;28;20093;-81
2022/04/22 10:42:17;;;;;;;8.63;6.10;;;;;;;-146.64;64.08;37874.72;5024437;28;20113;-79
2022/04/22 10:47:40;;;;;;;13.95;5.80;;;;;;;-146.64;59.79;37731.53;5000058;28;20049;-80
2022/04/22 10:50:25;;;;;;;7.55;6.15;;;;;;;-146.64;62.70;37868.59;5020776;28;20369;-78
2022/04/22 10:53:02;;;;;;;12.07;6.38;;;;;;;-146.64;64.19;37827.69;5033210;28;20057;-80
2022/04/22 10:55:28;;;;;;;14.63;7.07;;;;;;;-146.64;61.82;37825.63;4996799;28;20044;-80
2022/04/22 10:58:12;;;;;;;12.90;6.57;;;;;;;-146.64;61.89;37794.94;4997346;28;20034;-78
2022/04/22 11:00:40;;;;;;;10.82;5.95;;;;;;;-146.64;61.29;37700.84;5009884;28;20041;-81
2022/04/22 11:03:15;;;;;;;12.85;5.93;;;;;;;-146.64;59.55;37801.09;4997325;28;20590;-78
2022/04/22 11:06:11;;;;;;;10.00;6.18;;;;;;;-146.64;60.22;37608.78;4998740;28;20382;-79
2022/04/22 11:08:39;;;;;;;18.02;6.47;;;;;;;-146.64;58.51;37788.81;4999900;28;20049;-79
2022/04/22 11:11:18;;;;;;;13.02;6.47;;;;;;;-146.64;60.00;37717.22;5003895;28;20044;-79
2022/04/22 11:13:47;;;;;;;10.80;6.47;;;;;;;-146.64;61.51;37758.13;4983080;28;20036;-79
2022/04/22 11:16:22;;;;;;;9.27;6.32;;;;;;;-146.64;63.17;37991.34;5026437;28;20069;-79
2022/04/22 11:19:16;;;;;;;11.43;5.97;;;;;;;-146.64;61.82;38122.28;5015637;28;20488;-81
2022/04/22 11:21:44;;;;;;;10.85;6.00;;;;;;;-146.64;63.16;38107.97;4987016;28;20057;-80
2022/04/22 11:24:14;;;;;;;20.50;7.03;;;;;;;-146.64;64.61;38281.88;4999269;28;20022;-81
2022/04/22 11:26:41;;;;;;;23.50;6.70;;;;;;;-146.64;67.36;38341.22;5029332;28;20034;-80
2022/04/22 11:29:09;;;;;;;11.18;5.88;;;;;;;-146.64;67.43;38380.09;4997992;28;20159;-81
2022/04/22 11:31:35;;;;;;;11.27;6.78;;;;;;;-146.64;68.50;38376.00;5000108;28;20444;-81
2022/04/22 11:34:07;;;;;;;15.43;6.60;;;;;;;-146.64;67.59;38238.91;4986578;28;20060;-79
2022/04/22 11:36:44;;;;;;;17.88;8.18;;;;;;;-146.64;67.41;38175.47;5001993;28;20283;-80
2022/04/22 11:39:17;;;;;;;19.13;7.43;;;;;;;-146.64;67.46;37991.34;5011175;28;20038;-81
2022/04/22 11:42:01;;;;;;;12.13;5.75;;;;;;;-146.64;63.41;38028.19;4998075;28;20128;-82
2022/04/22 11:44:27;;;;;;;12.85;5.43;;;;;;;-146.64;61.72;37970.88;5017155;28;20501;-81
2022/04/22 11:46:53;;;;;;;7.85;5.47;;;;;;;-146.64;60.05;37846.09;4999234;28;20499;-81
2022/04/22 11:49:19;;;;;;;14.85;5.57;;;;;;;-146.64;57.64;37688.56;5010133;28;20036;-82
2022/04/22 11:51:46;;;;;;;17.75;7.80;;;;;;;-146.64;56.98;37704.94;4999176;28;20040;-82
2022/04/22 11:54:11;;;;;;;15.38;5.35;;;;;;;-146.64;54.22;37582.19;5034429;28;20103;-84
2022/04/22 11:56:36;;;;;;;12.30;5.23;;;;;;;-146.64;52.50;37727.44;4996552;28;20030;-81
2022/04/22 11:59:02;;;;;;;13.67;5.00;;;;;;;-146.64;53.32;37897.25;4994018;28;20036;-80
2022/04/22 12:10:03;;;;;;;8.50;5.03;;;;;;;-146.64;58.87;38253.22;5010126;28;20073;-80